sensor_id;sensor_type;location;lat;lon;timestamp;pressure;altitude;pressure_sealevel;temperature;humidity
45071;BME280;30836;48.906;9.140;2023-05-29T00:00:34;986.36;;;23.30;36.14
45071;BME280;30836;48.906;9.140;2023-05-29T00:01:34;986.36;;;23.28;36.15
45071;BME280;30836;48.906;9.140;2023-05-29T00:02:35;986.38;;;23.26;36.15
45071;BME280;30836;48.906;9.140;2023-05-29T00:03:35;986.36;;;23.26;36.20
45071;BME280;30836;48.906;9.140;2023-05-29T00:04:35;986.34;;;23.24;36.31
45071;BME280;30836;48.906;9.140;2023-05-29T00:05:36;986.38;;;23.22;36.36
45071;BME280;30836;48.906;9.140;2023-05-29T00:06:36;986.36;;;23.18;36.59
45071;BME280;30836;48.906;9.140;2023-05-29T00:07:37;986.38;;;23.16;36.70
45071;BME280;30836;48.906;9.140;2023-05-29T00:08:38;986.40;;;23.13;36.89
45071;BME280;30836;48.906;9.140;2023-05-29T00:09:38;986.42;;;23.10;37.00
45071;BME280;30836;48.906;9.140;2023-05-29T00:10:39;986.42;;;23.06;37.08
45071;BME280;30836;48.906;9.140;2023-05-29T00:11:39;986.44;;;23.03;37.08
45071;BME280;30836;48.906;9.140;2023-05-29T00:12:40;986.42;;;23.02;37.08
45071;BME280;30836;48.906;9.140;2023-05-29T00:13:40;986.44;;;23.01;37.04
45071;BME280;30836;48.906;9.140;2023-05-29T00:14:40;986.46;;;23.01;37.02
45071;BME280;30836;48.906;9.140;2023-05-29T00:15:41;986.44;;;23.00;36.97
45071;BME280;30836;48.906;9.140;2023-05-29T00:16:41;986.44;;;22.99;36.96
45071;BME280;30836;48.906;9.140;2023-05-29T00:17:42;986.46;;;22.98;36.94
45071;BME280;30836;48.906;9.140;2023-05-29T00:18:42;986.42;;;22.97;37.08
45071;BME280;30836;48.906;9.140;2023-05-29T00:19:42;986.40;;;22.96;37.04
45071;BME280;30836;48.906;9.140;2023-05-29T00:20:43;986.42;;;22.96;37.08
45071;BME280;30836;48.906;9.140;2023-05-29T00:21:44;986.40;;;22.94;37.30
45071;BME280;30836;48.906;9.140;2023-05-29T00:22:44;986.42;;;22.93;37.29
45071;BME280;30836;48.906;9.140;2023-05-29T00:23:45;986.38;;;22.92;37.31
45071;BME280;30836;48.906;9.140;2023-05-29T00:24:45;986.38;;;22.91;37.36
45071;BME280;30836;48.906;9.140;2023-05-29T00:25:45;986.36;;;22.91;37.27
45071;BME280;30836;48.906;9.140;2023-05-29T00:26:46;986.36;;;22.90;37.32
45071;BME280;30836;48.906;9.140;2023-05-29T00:27:46;986.34;;;22.87;37.34
45071;BME280;30836;48.906;9.140;2023-05-29T00:28:47;986.34;;;22.85;37.35
45071;BME280;30836;48.906;9.140;2023-05-29T00:29:47;986.34;;;22.83;37.39
45071;BME280;30836;48.906;9.140;2023-05-29T00:30:48;986.34;;;22.82;37.41
45071;BME280;30836;48.906;9.140;2023-05-29T00:31:48;986.34;;;22.81;37.44
45071;BME280;30836;48.906;9.140;2023-05-29T00:32:48;986.36;;;22.80;37.54
45071;BME280;30836;48.906;9.140;2023-05-29T00:33:49;986.34;;;22.78;37.49
45071;BME280;30836;48.906;9.140;2023-05-29T00:34:49;986.34;;;22.76;37.49
45071;BME280;30836;48.906;9.140;2023-05-29T00:35:50;986.36;;;22.74;37.43
45071;BME280;30836;48.906;9.140;2023-05-29T00:36:50;986.38;;;22.73;37.50
45071;BME280;30836;48.906;9.140;2023-05-29T00:37:51;986.40;;;22.70;37.59
45071;BME280;30836;48.906;9.140;2023-05-29T00:38:51;986.42;;;22.67;37.52
45071;BME280;30836;48.906;9.140;2023-05-29T00:39:52;986.38;;;22.63;37.59
45071;BME280;30836;48.906;9.140;2023-05-29T00:40:52;986.38;;;22.58;37.71
45071;BME280;30836;48.906;9.140;2023-05-29T00:41:52;986.38;;;22.51;37.84
45071;BME280;30836;48.906;9.140;2023-05-29T00:42:53;986.40;;;22.45;37.93
45071;BME280;30836;48.906;9.140;2023-05-29T00:43:54;986.42;;;22.42;37.88
45071;BME280;30836;48.906;9.140;2023-05-29T00:44:55;986.40;;;22.40;37.90
45071;BME280;30836;48.906;9.140;2023-05-29T00:45:55;986.38;;;22.39;37.88
45071;BME280;30836;48.906;9.140;2023-05-29T00:46:56;986.34;;;22.37;37.88
45071;BME280;30836;48.906;9.140;2023-05-29T00:47:56;986.34;;;22.32;38.28
45071;BME280;30836;48.906;9.140;2023-05-29T00:49:00;986.36;;;22.30;38.41
45071;BME280;30836;48.906;9.140;2023-05-29T00:50:01;986.36;;;22.35;38.13
45071;BME280;30836;48.906;9.140;2023-05-29T00:51:02;986.36;;;22.49;37.79
45071;BME280;30836;48.906;9.140;2023-05-29T00:52:04;986.38;;;22.63;37.39
45071;BME280;30836;48.906;9.140;2023-05-29T00:53:06;986.36;;;22.75;37.12
45071;BME280;30836;48.906;9.140;2023-05-29T00:54:07;986.34;;;22.85;36.87
45071;BME280;30836;48.906;9.140;2023-05-29T00:55:08;986.33;;;22.93;36.64
45071;BME280;30836;48.906;9.140;2023-05-29T00:56:09;986.33;;;22.97;36.62
45071;BME280;30836;48.906;9.140;2023-05-29T00:57:11;986.33;;;23.01;36.57
45071;BME280;30836;48.906;9.140;2023-05-29T00:58:13;986.31;;;23.04;36.69
45071;BME280;30836;48.906;9.140;2023-05-29T00:59:13;986.31;;;23.06;36.76
45071;BME280;30836;48.906;9.140;2023-05-29T01:00:14;986.33;;;23.09;36.82
45071;BME280;30836;48.906;9.140;2023-05-29T01:01:16;986.31;;;23.12;36.68
45071;BME280;30836;48.906;9.140;2023-05-29T01:02:18;986.31;;;23.15;36.59
45071;BME280;30836;48.906;9.140;2023-05-29T01:03:20;986.33;;;23.18;36.49
45071;BME280;30836;48.906;9.140;2023-05-29T01:04:20;986.33;;;23.22;36.41
45071;BME280;30836;48.906;9.140;2023-05-29T01:05:23;986.29;;;23.25;36.33
45071;BME280;30836;48.906;9.140;2023-05-29T01:06:23;986.29;;;23.28;36.24
45071;BME280;30836;48.906;9.140;2023-05-29T01:07:24;986.29;;;23.29;36.15
45071;BME280;30836;48.906;9.140;2023-05-29T01:08:24;986.27;;;23.30;36.09
45071;BME280;30836;48.906;9.140;2023-05-29T01:09:24;986.25;;;23.32;36.02
45071;BME280;30836;48.906;9.140;2023-05-29T01:10:25;986.27;;;23.33;35.91
45071;BME280;30836;48.906;9.140;2023-05-29T01:12:36;986.25;;;23.36;35.90
45071;BME280;30836;48.906;9.140;2023-05-29T01:13:41;986.25;;;23.37;35.78
45071;BME280;30836;48.906;9.140;2023-05-29T01:15:54;986.23;;;23.40;35.76
45071;BME280;30836;48.906;9.140;2023-05-29T01:17:07;986.23;;;23.40;35.76
45071;BME280;30836;48.906;9.140;2023-05-29T01:18:19;986.21;;;23.41;35.83
45071;BME280;30836;48.906;9.140;2023-05-29T01:24:02;986.25;;;23.39;35.93
45071;BME280;30836;48.906;9.140;2023-05-29T01:25:11;986.25;;;23.38;36.01
45071;BME280;30836;48.906;9.140;2023-05-29T01:27:26;986.21;;;23.38;36.02
45071;BME280;30836;48.906;9.140;2023-05-29T01:28:32;986.23;;;23.37;36.00
45071;BME280;30836;48.906;9.140;2023-05-29T01:29:39;986.19;;;23.35;36.19
45071;BME280;30836;48.906;9.140;2023-05-29T01:30:42;986.19;;;23.32;36.22
45071;BME280;30836;48.906;9.140;2023-05-29T01:31:43;986.19;;;23.30;36.18
45071;BME280;30836;48.906;9.140;2023-05-29T01:32:45;986.19;;;23.29;36.11
45071;BME280;30836;48.906;9.140;2023-05-29T01:34:52;986.21;;;23.28;36.04
45071;BME280;30836;48.906;9.140;2023-05-29T01:35:53;986.21;;;23.28;36.00
45071;BME280;30836;48.906;9.140;2023-05-29T01:36:53;986.25;;;23.27;36.00
45071;BME280;30836;48.906;9.140;2023-05-29T01:37:54;986.23;;;23.24;36.01
45071;BME280;30836;48.906;9.140;2023-05-29T01:38:55;986.21;;;23.21;36.17
45071;BME280;30836;48.906;9.140;2023-05-29T01:39:57;986.19;;;23.18;36.15
45071;BME280;30836;48.906;9.140;2023-05-29T01:40:57;986.21;;;23.17;36.07
45071;BME280;30836;48.906;9.140;2023-05-29T01:41:58;986.19;;;23.16;36.15
45071;BME280;30836;48.906;9.140;2023-05-29T01:43:01;986.19;;;23.15;36.16
45071;BME280;30836;48.906;9.140;2023-05-29T01:44:03;986.19;;;23.14;36.30
45071;BME280;30836;48.906;9.140;2023-05-29T01:45:05;986.19;;;23.13;36.31
45071;BME280;30836;48.906;9.140;2023-05-29T01:46:06;986.21;;;23.13;36.31
45071;BME280;30836;48.906;9.140;2023-05-29T01:47:07;986.21;;;23.11;36.42
45071;BME280;30836;48.906;9.140;2023-05-29T01:48:07;986.23;;;23.09;36.50
45071;BME280;30836;48.906;9.140;2023-05-29T01:49:08;986.21;;;23.07;36.52
45071;BME280;30836;48.906;9.140;2023-05-29T01:50:09;986.25;;;23.05;36.58
45071;BME280;30836;48.906;9.140;2023-05-29T01:51:11;986.27;;;23.03;36.60
45071;BME280;30836;48.906;9.140;2023-05-29T01:52:12;986.27;;;23.02;36.48
45071;BME280;30836;48.906;9.140;2023-05-29T01:53:13;986.27;;;23.00;36.45
45071;BME280;30836;48.906;9.140;2023-05-29T01:54:13;986.27;;;22.99;36.51
45071;BME280;30836;48.906;9.140;2023-05-29T01:55:14;986.29;;;22.97;36.45
45071;BME280;30836;48.906;9.140;2023-05-29T01:56:15;986.29;;;22.96;36.41
45071;BME280;30836;48.906;9.140;2023-05-29T01:57:15;986.27;;;22.94;36.45
45071;BME280;30836;48.906;9.140;2023-05-29T01:58:16;986.27;;;22.92;36.48
45071;BME280;30836;48.906;9.140;2023-05-29T01:58:27;986.29;;;22.88;36.51
45071;BME280;30836;48.906;9.140;2023-05-29T01:59:28;986.27;;;22.86;36.60
45071;BME280;30836;48.906;9.140;2023-05-29T02:00:29;986.31;;;22.76;36.92
45071;BME280;30836;48.906;9.140;2023-05-29T02:01:31;986.29;;;22.60;37.29
45071;BME280;30836;48.906;9.140;2023-05-29T02:02:32;986.29;;;22.45;37.49
45071;BME280;30836;48.906;9.140;2023-05-29T02:03:37;986.31;;;22.39;37.48
45071;BME280;30836;48.906;9.140;2023-05-29T02:04:37;986.31;;;22.42;37.29
45071;BME280;30836;48.906;9.140;2023-05-29T02:05:38;986.31;;;22.48;37.14
45071;BME280;30836;48.906;9.140;2023-05-29T02:06:38;986.29;;;22.55;37.11
45071;BME280;30836;48.906;9.140;2023-05-29T02:07:39;986.27;;;22.60;36.94
45071;BME280;30836;48.906;9.140;2023-05-29T02:08:39;986.29;;;22.64;36.88
45071;BME280;30836;48.906;9.140;2023-05-29T02:09:40;986.27;;;22.67;36.91
45071;BME280;30836;48.906;9.140;2023-05-29T02:10:40;986.27;;;22.70;36.82
45071;BME280;30836;48.906;9.140;2023-05-29T02:11:41;986.25;;;22.72;36.76
45071;BME280;30836;48.906;9.140;2023-05-29T02:12:41;986.25;;;22.73;36.73
45071;BME280;30836;48.906;9.140;2023-05-29T02:13:42;986.25;;;22.74;36.87
45071;BME280;30836;48.906;9.140;2023-05-29T02:14:42;986.27;;;22.73;36.97
45071;BME280;30836;48.906;9.140;2023-05-29T02:15:43;986.27;;;22.71;36.97
45071;BME280;30836;48.906;9.140;2023-05-29T02:16:44;986.27;;;22.70;36.97
45071;BME280;30836;48.906;9.140;2023-05-29T02:17:44;986.27;;;22.69;37.05
45071;BME280;30836;48.906;9.140;2023-05-29T02:18:45;986.25;;;22.67;37.03
45071;BME280;30836;48.906;9.140;2023-05-29T02:19:45;986.21;;;22.66;37.18
45071;BME280;30836;48.906;9.140;2023-05-29T02:20:46;986.25;;;22.64;37.21
45071;BME280;30836;48.906;9.140;2023-05-29T02:21:46;986.25;;;22.63;37.23
45071;BME280;30836;48.906;9.140;2023-05-29T02:22:47;986.23;;;22.62;37.10
45071;BME280;30836;48.906;9.140;2023-05-29T02:23:48;986.23;;;22.62;37.01
45071;BME280;30836;48.906;9.140;2023-05-29T02:24:48;986.25;;;22.63;37.06
45071;BME280;30836;48.906;9.140;2023-05-29T02:25:48;986.23;;;22.63;37.05
45071;BME280;30836;48.906;9.140;2023-05-29T02:26:49;986.23;;;22.63;37.05
45071;BME280;30836;48.906;9.140;2023-05-29T02:27:49;986.23;;;22.63;37.08
45071;BME280;30836;48.906;9.140;2023-05-29T02:28:50;986.23;;;22.62;37.13
45071;BME280;30836;48.906;9.140;2023-05-29T02:29:50;986.25;;;22.62;37.11
45071;BME280;30836;48.906;9.140;2023-05-29T02:30:50;986.23;;;22.61;37.13
45071;BME280;30836;48.906;9.140;2023-05-29T02:31:51;986.25;;;22.61;37.11
45071;BME280;30836;48.906;9.140;2023-05-29T02:32:51;986.25;;;22.60;36.99
45071;BME280;30836;48.906;9.140;2023-05-29T02:33:52;986.25;;;22.60;36.98
45071;BME280;30836;48.906;9.140;2023-05-29T02:34:53;986.23;;;22.59;36.99
45071;BME280;30836;48.906;9.140;2023-05-29T02:35:53;986.21;;;22.59;36.97
45071;BME280;30836;48.906;9.140;2023-05-29T02:36:54;986.21;;;22.58;36.98
45071;BME280;30836;48.906;9.140;2023-05-29T02:37:54;986.19;;;22.55;37.03
45071;BME280;30836;48.906;9.140;2023-05-29T02:38:55;986.19;;;22.53;37.00
45071;BME280;30836;48.906;9.140;2023-05-29T02:39:55;986.15;;;22.51;36.99
45071;BME280;30836;48.906;9.140;2023-05-29T02:40:55;986.17;;;22.49;37.04
45071;BME280;30836;48.906;9.140;2023-05-29T02:41:56;986.19;;;22.46;37.17
45071;BME280;30836;48.906;9.140;2023-05-29T02:42:56;986.17;;;22.43;37.21
45071;BME280;30836;48.906;9.140;2023-05-29T02:43:57;986.19;;;22.42;37.21
45071;BME280;30836;48.906;9.140;2023-05-29T02:44:57;986.19;;;22.42;37.14
45071;BME280;30836;48.906;9.140;2023-05-29T02:45:57;986.17;;;22.41;37.10
45071;BME280;30836;48.906;9.140;2023-05-29T02:46:58;986.17;;;22.40;37.12
45071;BME280;30836;48.906;9.140;2023-05-29T02:47:58;986.15;;;22.40;37.11
45071;BME280;30836;48.906;9.140;2023-05-29T02:48:59;986.13;;;22.39;37.14
45071;BME280;30836;48.906;9.140;2023-05-29T02:49:59;986.09;;;22.38;37.15
45071;BME280;30836;48.906;9.140;2023-05-29T02:51:00;986.09;;;22.36;37.20
45071;BME280;30836;48.906;9.140;2023-05-29T02:52:00;986.11;;;22.33;37.27
45071;BME280;30836;48.906;9.140;2023-05-29T02:53:00;986.13;;;22.30;37.51
45071;BME280;30836;48.906;9.140;2023-05-29T02:54:01;986.09;;;22.26;37.63
45071;BME280;30836;48.906;9.140;2023-05-29T02:55:02;986.11;;;22.22;37.65
45071;BME280;30836;48.906;9.140;2023-05-29T02:56:03;986.09;;;22.19;37.63
45071;BME280;30836;48.906;9.140;2023-05-29T02:57:04;986.11;;;22.16;37.61
45071;BME280;30836;48.906;9.140;2023-05-29T02:58:04;986.11;;;22.13;37.64
45071;BME280;30836;48.906;9.140;2023-05-29T02:59:05;986.09;;;22.10;37.64
45071;BME280;30836;48.906;9.140;2023-05-29T03:00:06;986.13;;;22.09;37.72
45071;BME280;30836;48.906;9.140;2023-05-29T03:01:07;986.11;;;22.08;37.69
45071;BME280;30836;48.906;9.140;2023-05-29T03:02:08;986.11;;;22.07;37.67
45071;BME280;30836;48.906;9.140;2023-05-29T03:03:08;986.13;;;22.07;37.63
45071;BME280;30836;48.906;9.140;2023-05-29T03:04:11;986.13;;;22.07;37.53
45071;BME280;30836;48.906;9.140;2023-05-29T03:05:12;986.17;;;22.07;37.45
45071;BME280;30836;48.906;9.140;2023-05-29T03:06:12;986.19;;;22.06;37.46
45071;BME280;30836;48.906;9.140;2023-05-29T03:07:13;986.19;;;22.04;37.56
45071;BME280;30836;48.906;9.140;2023-05-29T03:08:13;986.21;;;22.02;37.62
45071;BME280;30836;48.906;9.140;2023-05-29T03:09:14;986.21;;;22.00;37.66
45071;BME280;30836;48.906;9.140;2023-05-29T03:10:14;986.23;;;21.98;37.72
45071;BME280;30836;48.906;9.140;2023-05-29T03:11:15;986.21;;;21.96;37.74
45071;BME280;30836;48.906;9.140;2023-05-29T03:12:15;986.23;;;21.95;37.77
45071;BME280;30836;48.906;9.140;2023-05-29T03:13:16;986.23;;;21.94;37.77
45071;BME280;30836;48.906;9.140;2023-05-29T03:14:16;986.23;;;21.94;37.82
45071;BME280;30836;48.906;9.140;2023-05-29T03:15:17;986.23;;;21.94;37.78
45071;BME280;30836;48.906;9.140;2023-05-29T03:16:17;986.23;;;21.95;37.80
45071;BME280;30836;48.906;9.140;2023-05-29T03:17:18;986.25;;;21.96;37.83
45071;BME280;30836;48.906;9.140;2023-05-29T03:18:19;986.23;;;21.97;37.84
45071;BME280;30836;48.906;9.140;2023-05-29T03:19:20;986.23;;;21.98;37.93
45071;BME280;30836;48.906;9.140;2023-05-29T03:20:20;986.21;;;21.96;37.97
45071;BME280;30836;48.906;9.140;2023-05-29T03:21:21;986.19;;;21.87;38.20
45071;BME280;30836;48.906;9.140;2023-05-29T03:22:21;986.17;;;21.73;38.35
45071;BME280;30836;48.906;9.140;2023-05-29T03:23:22;986.17;;;21.59;38.49
45071;BME280;30836;48.906;9.140;2023-05-29T03:24:22;986.15;;;21.44;38.74
45071;BME280;30836;48.906;9.140;2023-05-29T03:25:23;986.15;;;21.30;38.93
45071;BME280;30836;48.906;9.140;2023-05-29T03:26:24;986.15;;;21.16;39.16
45071;BME280;30836;48.906;9.140;2023-05-29T03:27:24;986.11;;;21.03;39.44
45071;BME280;30836;48.906;9.140;2023-05-29T03:28:24;986.13;;;20.90;39.73
45071;BME280;30836;48.906;9.140;2023-05-29T03:29:25;986.13;;;20.79;40.03
45071;BME280;30836;48.906;9.140;2023-05-29T03:30:25;986.13;;;20.71;40.20
45071;BME280;30836;48.906;9.140;2023-05-29T03:31:26;986.13;;;20.66;40.19
45071;BME280;30836;48.906;9.140;2023-05-29T03:32:26;986.09;;;20.61;40.19
45071;BME280;30836;48.906;9.140;2023-05-29T03:33:26;986.11;;;20.57;40.36
45071;BME280;30836;48.906;9.140;2023-05-29T03:34:27;986.13;;;20.53;40.46
45071;BME280;30836;48.906;9.140;2023-05-29T03:35:27;986.13;;;20.49;40.61
45071;BME280;30836;48.906;9.140;2023-05-29T03:36:28;986.09;;;20.46;40.73
45071;BME280;30836;48.906;9.140;2023-05-29T03:37:28;986.09;;;20.43;40.79
45071;BME280;30836;48.906;9.140;2023-05-29T03:38:29;986.09;;;20.41;40.84
45071;BME280;30836;48.906;9.140;2023-05-29T03:39:30;986.07;;;20.39;40.84
45071;BME280;30836;48.906;9.140;2023-05-29T03:40:30;986.09;;;20.39;40.81
45071;BME280;30836;48.906;9.140;2023-05-29T03:41:30;986.09;;;20.40;40.76
45071;BME280;30836;48.906;9.140;2023-05-29T03:42:31;986.09;;;20.40;40.75
45071;BME280;30836;48.906;9.140;2023-05-29T03:43:32;986.11;;;20.39;40.81
45071;BME280;30836;48.906;9.140;2023-05-29T03:44:32;986.13;;;20.38;40.94
45071;BME280;30836;48.906;9.140;2023-05-29T03:45:33;986.15;;;20.38;41.03
45071;BME280;30836;48.906;9.140;2023-05-29T03:46:33;986.15;;;20.38;41.04
45071;BME280;30836;48.906;9.140;2023-05-29T03:47:33;986.21;;;20.38;41.05
45071;BME280;30836;48.906;9.140;2023-05-29T03:48:34;986.23;;;20.37;41.07
45071;BME280;30836;48.906;9.140;2023-05-29T03:49:34;986.27;;;20.37;41.07
45071;BME280;30836;48.906;9.140;2023-05-29T03:50:35;986.27;;;20.37;41.06
45071;BME280;30836;48.906;9.140;2023-05-29T03:51:35;986.29;;;20.36;41.04
45071;BME280;30836;48.906;9.140;2023-05-29T03:52:36;986.27;;;20.35;41.05
45071;BME280;30836;48.906;9.140;2023-05-29T03:53:36;986.29;;;20.32;41.10
45071;BME280;30836;48.906;9.140;2023-05-29T03:54:37;986.29;;;20.29;41.07
45071;BME280;30836;48.906;9.140;2023-05-29T03:55:37;986.31;;;20.25;41.12
45071;BME280;30836;48.906;9.140;2023-05-29T03:56:38;986.31;;;20.22;41.11
45071;BME280;30836;48.906;9.140;2023-05-29T03:57:38;986.33;;;20.20;41.16
45071;BME280;30836;48.906;9.140;2023-05-29T03:58:40;986.29;;;20.18;41.10
45071;BME280;30836;48.906;9.140;2023-05-29T03:59:40;986.31;;;20.17;41.16
45071;BME280;30836;48.906;9.140;2023-05-29T04:00:41;986.31;;;20.16;41.18
45071;BME280;30836;48.906;9.140;2023-05-29T04:01:41;986.34;;;20.14;41.36
45071;BME280;30836;48.906;9.140;2023-05-29T04:02:42;986.33;;;20.11;41.42
45071;BME280;30836;48.906;9.140;2023-05-29T04:03:42;986.36;;;20.09;41.43
45071;BME280;30836;48.906;9.140;2023-05-29T04:04:42;986.36;;;20.09;41.35
45071;BME280;30836;48.906;9.140;2023-05-29T04:05:43;986.38;;;20.09;41.38
45071;BME280;30836;48.906;9.140;2023-05-29T04:06:43;986.36;;;20.11;41.35
45071;BME280;30836;48.906;9.140;2023-05-29T04:07:44;986.36;;;20.11;41.43
45071;BME280;30836;48.906;9.140;2023-05-29T04:08:44;986.34;;;20.13;41.39
45071;BME280;30836;48.906;9.140;2023-05-29T04:09:45;986.36;;;20.13;41.46
45071;BME280;30836;48.906;9.140;2023-05-29T04:10:45;986.36;;;20.14;41.49
45071;BME280;30836;48.906;9.140;2023-05-29T04:11:45;986.36;;;20.15;41.54
45071;BME280;30836;48.906;9.140;2023-05-29T04:12:46;986.42;;;20.17;41.51
45071;BME280;30836;48.906;9.140;2023-05-29T04:13:47;986.44;;;20.19;41.46
45071;BME280;30836;48.906;9.140;2023-05-29T04:14:47;986.44;;;20.21;41.41
45071;BME280;30836;48.906;9.140;2023-05-29T04:15:48;986.46;;;20.23;41.47
45071;BME280;30836;48.906;9.140;2023-05-29T04:16:48;986.48;;;20.25;41.49
45071;BME280;30836;48.906;9.140;2023-05-29T04:17:49;986.50;;;20.27;41.46
45071;BME280;30836;48.906;9.140;2023-05-29T04:18:49;986.50;;;20.30;41.37
45071;BME280;30836;48.906;9.140;2023-05-29T04:19:50;986.56;;;20.32;41.27
45071;BME280;30836;48.906;9.140;2023-05-29T04:20:50;986.56;;;20.34;41.23
45071;BME280;30836;48.906;9.140;2023-05-29T04:21:51;986.58;;;20.35;41.26
45071;BME280;30836;48.906;9.140;2023-05-29T04:22:51;986.60;;;20.37;41.21
45071;BME280;30836;48.906;9.140;2023-05-29T04:23:52;986.60;;;20.38;41.15
45071;BME280;30836;48.906;9.140;2023-05-29T04:24:52;986.60;;;20.40;41.10
45071;BME280;30836;48.906;9.140;2023-05-29T04:25:53;986.60;;;20.43;41.01
45071;BME280;30836;48.906;9.140;2023-05-29T04:26:53;986.64;;;20.47;41.01
45071;BME280;30836;48.906;9.140;2023-05-29T04:27:54;986.68;;;20.50;41.23
45071;BME280;30836;48.906;9.140;2023-05-29T04:28:54;986.68;;;20.52;41.20
45071;BME280;30836;48.906;9.140;2023-05-29T04:29:54;986.68;;;20.54;41.25
45071;BME280;30836;48.906;9.140;2023-05-29T04:30:55;986.70;;;20.53;41.23
45071;BME280;30836;48.906;9.140;2023-05-29T04:31:55;986.72;;;20.51;41.30
45071;BME280;30836;48.906;9.140;2023-05-29T04:32:56;986.70;;;20.50;41.22
45071;BME280;30836;48.906;9.140;2023-05-29T04:33:56;986.76;;;20.49;41.25
45071;BME280;30836;48.906;9.140;2023-05-29T04:34:57;986.76;;;20.49;41.37
45071;BME280;30836;48.906;9.140;2023-05-29T04:35:57;986.76;;;20.50;41.40
45071;BME280;30836;48.906;9.140;2023-05-29T04:36:58;986.76;;;20.51;41.29
45071;BME280;30836;48.906;9.140;2023-05-29T04:37:58;986.78;;;20.53;41.15
45071;BME280;30836;48.906;9.140;2023-05-29T04:38:59;986.80;;;20.54;41.06
45071;BME280;30836;48.906;9.140;2023-05-29T04:39:59;986.80;;;20.56;40.91
45071;BME280;30836;48.906;9.140;2023-05-29T04:41:00;986.80;;;20.57;40.87
45071;BME280;30836;48.906;9.140;2023-05-29T04:42:00;986.82;;;20.60;40.70
45071;BME280;30836;48.906;9.140;2023-05-29T04:43:01;986.84;;;20.63;40.65
45071;BME280;30836;48.906;9.140;2023-05-29T04:44:01;986.82;;;20.67;40.56
45071;BME280;30836;48.906;9.140;2023-05-29T04:45:02;986.85;;;20.71;40.55
45071;BME280;30836;48.906;9.140;2023-05-29T04:46:03;986.84;;;20.74;40.47
45071;BME280;30836;48.906;9.140;2023-05-29T04:47:03;986.82;;;20.77;40.44
45071;BME280;30836;48.906;9.140;2023-05-29T04:48:04;986.82;;;20.81;40.38
45071;BME280;30836;48.906;9.140;2023-05-29T04:49:04;986.82;;;20.84;40.38
45071;BME280;30836;48.906;9.140;2023-05-29T04:50:05;986.85;;;20.86;40.45
45071;BME280;30836;48.906;9.140;2023-05-29T04:51:06;986.85;;;20.87;40.64
45071;BME280;30836;48.906;9.140;2023-05-29T04:52:07;986.85;;;20.87;40.66
45071;BME280;30836;48.906;9.140;2023-05-29T04:53:07;986.85;;;20.88;40.69
45071;BME280;30836;48.906;9.140;2023-05-29T04:54:08;986.85;;;20.90;40.68
45071;BME280;30836;48.906;9.140;2023-05-29T04:55:10;986.87;;;20.93;40.54
45071;BME280;30836;48.906;9.140;2023-05-29T04:56:11;986.85;;;20.96;40.55
45071;BME280;30836;48.906;9.140;2023-05-29T04:57:11;986.87;;;20.99;40.47
45071;BME280;30836;48.906;9.140;2023-05-29T04:58:11;986.87;;;21.04;40.32
45071;BME280;30836;48.906;9.140;2023-05-29T04:59:12;986.85;;;21.08;40.30
45071;BME280;30836;48.906;9.140;2023-05-29T05:00:12;986.85;;;21.11;40.25
45071;BME280;30836;48.906;9.140;2023-05-29T05:01:14;986.87;;;21.16;40.16
45071;BME280;30836;48.906;9.140;2023-05-29T05:02:14;986.87;;;21.28;39.79
45071;BME280;30836;48.906;9.140;2023-05-29T05:03:15;986.89;;;21.45;39.50
45071;BME280;30836;48.906;9.140;2023-05-29T05:04:15;986.91;;;21.62;39.25
45071;BME280;30836;48.906;9.140;2023-05-29T05:05:16;986.93;;;21.78;39.00
45071;BME280;30836;48.906;9.140;2023-05-29T05:06:16;986.95;;;21.93;38.80
45071;BME280;30836;48.906;9.140;2023-05-29T05:07:17;986.97;;;22.07;38.59
45071;BME280;30836;48.906;9.140;2023-05-29T05:08:17;986.99;;;22.19;38.40
45071;BME280;30836;48.906;9.140;2023-05-29T05:09:18;986.99;;;22.30;38.10
45071;BME280;30836;48.906;9.140;2023-05-29T05:10:18;986.97;;;22.40;37.87
45071;BME280;30836;48.906;9.140;2023-05-29T05:11:20;987.03;;;22.48;37.49
45071;BME280;30836;48.906;9.140;2023-05-29T05:12:21;987.01;;;22.57;37.37
45071;BME280;30836;48.906;9.140;2023-05-29T05:13:22;987.03;;;22.64;37.11
45071;BME280;30836;48.906;9.140;2023-05-29T05:14:22;987.01;;;22.70;36.86
45071;BME280;30836;48.906;9.140;2023-05-29T05:15:23;987.03;;;22.76;36.59
45071;BME280;30836;48.906;9.140;2023-05-29T05:16:23;987.03;;;22.83;36.48
45071;BME280;30836;48.906;9.140;2023-05-29T05:17:24;987.05;;;22.90;36.43
45071;BME280;30836;48.906;9.140;2023-05-29T05:18:24;987.05;;;22.97;36.25
45071;BME280;30836;48.906;9.140;2023-05-29T05:19:24;987.05;;;23.03;36.17
45071;BME280;30836;48.906;9.140;2023-05-29T05:20:25;987.01;;;23.08;35.98
45071;BME280;30836;48.906;9.140;2023-05-29T05:21:25;986.99;;;23.13;35.96
45071;BME280;30836;48.906;9.140;2023-05-29T05:22:26;987.01;;;23.18;35.96
45071;BME280;30836;48.906;9.140;2023-05-29T05:23:26;986.97;;;23.22;35.92
45071;BME280;30836;48.906;9.140;2023-05-29T05:24:26;987.01;;;23.27;35.83
45071;BME280;30836;48.906;9.140;2023-05-29T05:25:27;987.01;;;23.32;35.73
45071;BME280;30836;48.906;9.140;2023-05-29T05:26:27;987.01;;;23.36;35.65
45071;BME280;30836;48.906;9.140;2023-05-29T05:27:28;987.01;;;23.41;35.61
45071;BME280;30836;48.906;9.140;2023-05-29T05:28:28;987.03;;;23.46;35.47
45071;BME280;30836;48.906;9.140;2023-05-29T05:29:29;987.03;;;23.51;35.36
45071;BME280;30836;48.906;9.140;2023-05-29T05:30:29;987.03;;;23.57;35.19
45071;BME280;30836;48.906;9.140;2023-05-29T05:31:29;987.07;;;23.62;35.08
45071;BME280;30836;48.906;9.140;2023-05-29T05:32:30;987.09;;;23.68;34.99
45071;BME280;30836;48.906;9.140;2023-05-29T05:33:30;987.09;;;23.73;34.89
45071;BME280;30836;48.906;9.140;2023-05-29T05:34:31;987.07;;;23.79;34.83
45071;BME280;30836;48.906;9.140;2023-05-29T05:35:31;987.07;;;23.85;34.78
45071;BME280;30836;48.906;9.140;2023-05-29T05:36:32;987.11;;;23.90;36.53
45071;BME280;30836;48.906;9.140;2023-05-29T05:37:32;987.11;;;23.95;35.60
45071;BME280;30836;48.906;9.140;2023-05-29T05:38:32;987.11;;;24.00;35.90
45071;BME280;30836;48.906;9.140;2023-05-29T05:39:33;987.15;;;24.05;35.22